sensor_id;sensor_type;location;lat;lon;timestamp;temperature;humidity
31131;DHT22;20292;50.944;4.034;2022-08-19T00:00:20;21.70;99.90
31131;DHT22;20292;50.944;4.034;2022-08-19T00:02:45;21.70;99.90
31131;DHT22;20292;50.944;4.034;2022-08-19T00:05:13;21.70;99.90
31131;DHT22;20292;50.944;4.034;2022-08-19T00:07:38;21.80;99.90
31131;DHT22;20292;50.944;4.034;2022-08-19T00:10:08;21.80;99.90
31131;DHT22;20292;50.944;4.034;2022-08-19T00:12:35;21.80;99.90
31131;DHT22;20292;50.944;4.034;2022-08-19T00:15:01;21.80;99.90
31131;DHT22;20292;50.944;4.034;2022-08-19T00:17:27;21.80;99.90
31131;DHT22;20292;50.944;4.034;2022-08-19T00:19:52;21.80;99.90
31131;DHT22;20292;50.944;4.034;2022-08-19T00:22:18;21.80;99.90
31131;DHT22;20292;50.944;4.034;2022-08-19T00:24:44;21.80;99.90
31131;DHT22;20292;50.944;4.034;2022-08-19T00:27:11;21.70;99.90
31131;DHT22;20292;50.944;4.034;2022-08-19T00:29:37;21.70;99.90
31131;DHT22;20292;50.944;4.034;2022-08-19T00:32:03;21.70;99.90
31131;DHT22;20292;50.944;4.034;2022-08-19T00:34:29;21.70;99.90
31131;DHT22;20292;50.944;4.034;2022-08-19T00:36:56;21.70;99.90
31131;DHT22;20292;50.944;4.034;2022-08-19T00:39:22;21.80;99.90
31131;DHT22;20292;50.944;4.034;2022-08-19T00:41:51;21.70;99.90
31131;DHT22;20292;50.944;4.034;2022-08-19T00:44:22;21.70;99.90
31131;DHT22;20292;50.944;4.034;2022-08-19T00:46:49;21.70;99.90
31131;DHT22;20292;50.944;4.034;2022-08-19T00:49:31;21.70;99.90
31131;DHT22;20292;50.944;4.034;2022-08-19T00:52:13;21.70;99.90
31131;DHT22;20292;50.944;4.034;2022-08-19T00:54:40;21.70;99.90
31131;DHT22;20292;50.944;4.034;2022-08-19T00:57:08;21.60;99.90
31131;DHT22;20292;50.944;4.034;2022-08-19T00:59:36;21.60;99.90
31131;DHT22;20292;50.944;4.034;2022-08-19T01:02:04;21.60;99.90
31131;DHT22;20292;50.944;4.034;2022-08-19T01:04:30;21.70;99.90
31131;DHT22;20292;50.944;4.034;2022-08-19T01:06:56;21.60;99.90
31131;DHT22;20292;50.944;4.034;2022-08-19T01:09:22;21.50;99.90
31131;DHT22;20292;50.944;4.034;2022-08-19T01:11:48;21.50;99.90
31131;DHT22;20292;50.944;4.034;2022-08-19T01:14:15;21.50;99.90
31131;DHT22;20292;50.944;4.034;2022-08-19T01:16:43;21.50;99.90
31131;DHT22;20292;50.944;4.034;2022-08-19T01:19:31;21.50;99.90
31131;DHT22;20292;50.944;4.034;2022-08-19T01:22:04;21.50;99.90
31131;DHT22;20292;50.944;4.034;2022-08-19T01:24:31;21.40;99.90
31131;DHT22;20292;50.944;4.034;2022-08-19T01:26:57;21.40;99.90
31131;DHT22;20292;50.944;4.034;2022-08-19T01:29:23;21.40;99.90
31131;DHT22;20292;50.944;4.034;2022-08-19T01:31:48;21.30;99.90
31131;DHT22;20292;50.944;4.034;2022-08-19T01:34:19;21.30;99.90
31131;DHT22;20292;50.944;4.034;2022-08-19T01:36:47;21.20;99.90
31131;DHT22;20292;50.944;4.034;2022-08-19T01:39:19;21.20;99.90
31131;DHT22;20292;50.944;4.034;2022-08-19T01:41:47;21.20;99.90
31131;DHT22;20292;50.944;4.034;2022-08-19T01:44:13;21.20;99.90
31131;DHT22;20292;50.944;4.034;2022-08-19T01:46:39;21.10;99.90
31131;DHT22;20292;50.944;4.034;2022-08-19T01:49:05;21.10;99.90
31131;DHT22;20292;50.944;4.034;2022-08-19T01:51:31;21.10;99.90
31131;DHT22;20292;50.944;4.034;2022-08-19T01:53:57;21.10;99.90
31131;DHT22;20292;50.944;4.034;2022-08-19T01:56:23;21.10;99.90
31131;DHT22;20292;50.944;4.034;2022-08-19T01:58:53;21.10;99.90
31131;DHT22;20292;50.944;4.034;2022-08-19T02:01:19;21.10;99.90
31131;DHT22;20292;50.944;4.034;2022-08-19T02:03:45;21.00;99.90
31131;DHT22;20292;50.944;4.034;2022-08-19T02:06:11;21.00;99.90
31131;DHT22;20292;50.944;4.034;2022-08-19T02:08:38;21.00;99.90
31131;DHT22;20292;50.944;4.034;2022-08-19T02:11:05;20.90;99.90
31131;DHT22;20292;50.944;4.034;2022-08-19T02:13:31;20.90;99.90
31131;DHT22;20292;50.944;4.034;2022-08-19T02:15:57;20.80;99.90
31131;DHT22;20292;50.944;4.034;2022-08-19T02:18:23;20.80;99.90
31131;DHT22;20292;50.944;4.034;2022-08-19T02:20:48;20.80;99.90
31131;DHT22;20292;50.944;4.034;2022-08-19T02:23:15;20.70;99.90
31131;DHT22;20292;50.944;4.034;2022-08-19T02:25:46;20.70;99.90
31131;DHT22;20292;50.944;4.034;2022-08-19T02:28:13;20.70;99.90
31131;DHT22;20292;50.944;4.034;2022-08-19T02:30:41;20.70;99.90
31131;DHT22;20292;50.944;4.034;2022-08-19T02:33:06;20.70;99.90
31131;DHT22;20292;50.944;4.034;2022-08-19T02:35:32;20.60;99.90
31131;DHT22;20292;50.944;4.034;2022-08-19T02:37:58;20.60;99.90
31131;DHT22;20292;50.944;4.034;2022-08-19T02:40:49;20.50;99.90
31131;DHT22;20292;50.944;4.034;2022-08-19T02:43:17;20.50;99.90
31131;DHT22;20292;50.944;4.034;2022-08-19T02:45:42;20.50;99.90
31131;DHT22;20292;50.944;4.034;2022-08-19T02:48:08;20.50;99.90
31131;DHT22;20292;50.944;4.034;2022-08-19T02:50:38;20.50;99.90
31131;DHT22;20292;50.944;4.034;2022-08-19T02:53:04;20.50;99.90
31131;DHT22;20292;50.944;4.034;2022-08-19T02:55:31;20.50;99.90
31131;DHT22;20292;50.944;4.034;2022-08-19T02:57:57;20.40;99.90
31131;DHT22;20292;50.944;4.034;2022-08-19T03:00:22;20.50;99.90
31131;DHT22;20292;50.944;4.034;2022-08-19T03:02:49;20.40;99.90
31131;DHT22;20292;50.944;4.034;2022-08-19T03:05:15;20.40;99.90
31131;DHT22;20292;50.944;4.034;2022-08-19T03:07:41;20.30;99.90
31131;DHT22;20292;50.944;4.034;2022-08-19T03:10:07;20.30;99.90
31131;DHT22;20292;50.944;4.034;2022-08-19T03:12:36;20.30;99.90
31131;DHT22;20292;50.944;4.034;2022-08-19T03:15:04;20.30;99.90
31131;DHT22;20292;50.944;4.034;2022-08-19T03:17:31;20.30;99.90
31131;DHT22;20292;50.944;4.034;2022-08-19T03:19:56;20.20;99.90
31131;DHT22;20292;50.944;4.034;2022-08-19T03:22:22;20.10;99.90
31131;DHT22;20292;50.944;4.034;2022-08-19T03:24:48;20.10;99.90
31131;DHT22;20292;50.944;4.034;2022-08-19T03:27:13;20.10;99.90
31131;DHT22;20292;50.944;4.034;2022-08-19T03:29:39;20.00;99.90
31131;DHT22;20292;50.944;4.034;2022-08-19T03:32:06;20.10;99.90
31131;DHT22;20292;50.944;4.034;2022-08-19T03:34:33;20.00;99.90
31131;DHT22;20292;50.944;4.034;2022-08-19T03:37:07;20.00;99.90
31131;DHT22;20292;50.944;4.034;2022-08-19T03:39:32;20.00;99.90
31131;DHT22;20292;50.944;4.034;2022-08-19T03:41:58;19.90;99.90
31131;DHT22;20292;50.944;4.034;2022-08-19T03:44:26;19.90;99.90
31131;DHT22;20292;50.944;4.034;2022-08-19T03:46:56;19.90;99.90
31131;DHT22;20292;50.944;4.034;2022-08-19T03:49:24;19.90;99.90
31131;DHT22;20292;50.944;4.034;2022-08-19T03:51:52;19.80;99.90
31131;DHT22;20292;50.944;4.034;2022-08-19T03:54:21;19.70;99.90
31131;DHT22;20292;50.944;4.034;2022-08-19T03:56:49;19.70;99.90
31131;DHT22;20292;50.944;4.034;2022-08-19T03:59:21;19.70;99.90
31131;DHT22;20292;50.944;4.034;2022-08-19T04:01:47;19.70;99.90
31131;DHT22;20292;50.944;4.034;2022-08-19T04:04:13;19.70;99.90
31131;DHT22;20292;50.944;4.034;2022-08-19T04:06:39;19.70;99.90
31131;DHT22;20292;50.944;4.034;2022-08-19T04:09:07;19.60;99.90
31131;DHT22;20292;50.944;4.034;2022-08-19T04:11:39;19.60;99.90
31131;DHT22;20292;50.944;4.034;2022-08-19T04:14:08;19.60;99.90
31131;DHT22;20292;50.944;4.034;2022-08-19T04:16:34;19.60;99.90
31131;DHT22;20292;50.944;4.034;2022-08-19T04:19:01;19.50;99.90
31131;DHT22;20292;50.944;4.034;2022-08-19T04:21:28;19.60;99.90
31131;DHT22;20292;50.944;4.034;2022-08-19T04:23:55;19.60;99.90
31131;DHT22;20292;50.944;4.034;2022-08-19T04:26:24;19.60;99.90
31131;DHT22;20292;50.944;4.034;2022-08-19T04:28:51;19.60;99.90
31131;DHT22;20292;50.944;4.034;2022-08-19T04:31:22;19.60;99.90
31131;DHT22;20292;50.944;4.034;2022-08-19T04:33:57;19.60;99.90
31131;DHT22;20292;50.944;4.034;2022-08-19T04:36:28;19.60;99.90
31131;DHT22;20292;50.944;4.034;2022-08-19T04:38:56;19.60;99.90
31131;DHT22;20292;50.944;4.034;2022-08-19T04:41:22;19.50;99.90
31131;DHT22;20292;50.944;4.034;2022-08-19T04:44:06;19.50;99.90
31131;DHT22;20292;50.944;4.034;2022-08-19T04:46:32;19.50;99.90
31131;DHT22;20292;50.944;4.034;2022-08-19T04:48:59;19.50;99.90
31131;DHT22;20292;50.944;4.034;2022-08-19T04:51:25;19.50;99.90
31131;DHT22;20292;50.944;4.034;2022-08-19T04:53:52;19.50;99.90
31131;DHT22;20292;50.944;4.034;2022-08-19T04:56:18;19.50;99.90
31131;DHT22;20292;50.944;4.034;2022-08-19T04:58:48;19.40;99.90
31131;DHT22;20292;50.944;4.034;2022-08-19T05:01:23;19.40;99.90
31131;DHT22;20292;50.944;4.034;2022-08-19T05:03:49;19.50;99.90
31131;DHT22;20292;50.944;4.034;2022-08-19T05:06:16;19.50;99.90
31131;DHT22;20292;50.944;4.034;2022-08-19T05:08:43;19.60;99.90
31131;DHT22;20292;50.944;4.034;2022-08-19T05:13:34;19.60;99.90
31131;DHT22;20292;50.944;4.034;2022-08-19T05:16:00;19.70;99.90
31131;DHT22;20292;50.944;4.034;2022-08-19T05:18:26;19.70;99.90
31131;DHT22;20292;50.944;4.034;2022-08-19T05:21:13;19.90;99.90
31131;DHT22;20292;50.944;4.034;2022-08-19T05:23:58;20.00;99.90
31131;DHT22;20292;50.944;4.034;2022-08-19T05:26:24;20.30;99.90
31131;DHT22;20292;50.944;4.034;2022-08-19T05:28:53;20.80;99.90
31131;DHT22;20292;50.944;4.034;2022-08-19T05:31:19;20.90;99.90
31131;DHT22;20292;50.944;4.034;2022-08-19T05:33:45;20.90;99.90
31131;DHT22;20292;50.944;4.034;2022-08-19T05:36:11;20.90;99.90
31131;DHT22;20292;50.944;4.034;2022-08-19T05:38:36;20.90;99.90
31131;DHT22;20292;50.944;4.034;2022-08-19T05:41:13;21.10;99.90
31131;DHT22;20292;50.944;4.034;2022-08-19T05:43:39;21.10;99.90
31131;DHT22;20292;50.944;4.034;2022-08-19T05:46:06;21.20;99.90
31131;DHT22;20292;50.944;4.034;2022-08-19T05:48:33;21.20;99.90
31131;DHT22;20292;50.944;4.034;2022-08-19T05:51:06;21.40;99.90
31131;DHT22;20292;50.944;4.034;2022-08-19T05:53:32;21.80;99.90
31131;DHT22;20292;50.944;4.034;2022-08-19T05:56:10;22.00;99.90
31131;DHT22;20292;50.944;4.034;2022-08-19T05:58:37;22.20;99.90
31131;DHT22;20292;50.944;4.034;2022-08-19T06:01:04;22.50;99.90
31131;DHT22;20292;50.944;4.034;2022-08-19T06:03:34;22.80;99.90
31131;DHT22;20292;50.944;4.034;2022-08-19T06:06:06;22.90;99.90
31131;DHT22;20292;50.944;4.034;2022-08-19T06:08:32;22.90;99.90
31131;DHT22;20292;50.944;4.034;2022-08-19T06:13:40;22.70;99.90
31131;DHT22;20292;50.944;4.034;2022-08-19T06:16:05;22.60;99.90
31131;DHT22;20292;50.944;4.034;2022-08-19T06:18:31;22.50;99.90
31131;DHT22;20292;50.944;4.034;2022-08-19T06:20:58;22.40;99.90
31131;DHT22;20292;50.944;4.034;2022-08-19T06:23:24;22.30;99.90
31131;DHT22;20292;50.944;4.034;2022-08-19T06:25:50;22.30;99.90
31131;DHT22;20292;50.944;4.034;2022-08-19T06:28:16;22.30;99.90
31131;DHT22;20292;50.944;4.034;2022-08-19T06:30:42;22.30;99.90
31131;DHT22;20292;50.944;4.034;2022-08-19T06:33:07;22.50;99.90
31131;DHT22;20292;50.944;4.034;2022-08-19T06:35:39;22.60;99.90
31131;DHT22;20292;50.944;4.034;2022-08-19T06:38:05;22.60;99.90
31131;DHT22;20292;50.944;4.034;2022-08-19T06:40:30;22.50;99.90
31131;DHT22;20292;50.944;4.034;2022-08-19T06:42:56;22.50;99.90
31131;DHT22;20292;50.944;4.034;2022-08-19T06:45:24;22.60;99.90
31131;DHT22;20292;50.944;4.034;2022-08-19T06:47:49;22.60;99.90
31131;DHT22;20292;50.944;4.034;2022-08-19T06:50:15;22.80;99.90
31131;DHT22;20292;50.944;4.034;2022-08-19T06:52:40;22.90;99.90
31131;DHT22;20292;50.944;4.034;2022-08-19T06:55:06;22.90;99.90
31131;DHT22;20292;50.944;4.034;2022-08-19T06:57:32;23.10;99.90
31131;DHT22;20292;50.944;4.034;2022-08-19T06:59:58;23.10;99.90
31131;DHT22;20292;50.944;4.034;2022-08-19T07:02:25;23.00;99.90
31131;DHT22;20292;50.944;4.034;2022-08-19T07:04:52;23.10;99.90
31131;DHT22;20292;50.944;4.034;2022-08-19T07:07:18;23.30;99.90
31131;DHT22;20292;50.944;4.034;2022-08-19T07:09:45;23.50;99.90
31131;DHT22;20292;50.944;4.034;2022-08-19T07:12:13;23.80;99.90
31131;DHT22;20292;50.944;4.034;2022-08-19T07:14:41;23.90;99.90
31131;DHT22;20292;50.944;4.034;2022-08-19T07:17:09;23.80;99.90
31131;DHT22;20292;50.944;4.034;2022-08-19T07:19:37;23.70;99.90
31131;DHT22;20292;50.944;4.034;2022-08-19T07:22:05;23.70;99.90
31131;DHT22;20292;50.944;4.034;2022-08-19T07:24:31;23.80;99.90
31131;DHT22;20292;50.944;4.034;2022-08-19T07:26:59;23.80;99.90
31131;DHT22;20292;50.944;4.034;2022-08-19T07:29:27;24.00;99.90
31131;DHT22;20292;50.944;4.034;2022-08-19T07:31:54;24.00;99.90
31131;DHT22;20292;50.944;4.034;2022-08-19T07:34:24;23.90;99.90
31131;DHT22;20292;50.944;4.034;2022-08-19T07:36:51;24.00;99.90
31131;DHT22;20292;50.944;4.034;2022-08-19T07:39:25;23.80;99.90
31131;DHT22;20292;50.944;4.034;2022-08-19T07:41:52;23.80;99.90
31131;DHT22;20292;50.944;4.034;2022-08-19T07:44:19;23.70;99.90
31131;DHT22;20292;50.944;4.034;2022-08-19T07:46:48;23.80;99.90
31131;DHT22;20292;50.944;4.034;2022-08-19T07:49:15;23.80;99.90
31131;DHT22;20292;50.944;4.034;2022-08-19T07:52:00;23.80;99.90
31131;DHT22;20292;50.944;4.034;2022-08-19T07:54:28;23.60;99.90
31131;DHT22;20292;50.944;4.034;2022-08-19T07:56:55;23.60;99.90
31131;DHT22;20292;50.944;4.034;2022-08-19T07:59:22;23.50;99.90
31131;DHT22;20292;50.944;4.034;2022-08-19T08:01:49;23.50;99.90
31131;DHT22;20292;50.944;4.034;2022-08-19T08:04:16;23.50;99.90
31131;DHT22;20292;50.944;4.034;2022-08-19T08:07:01;23.60;99.90
31131;DHT22;20292;50.944;4.034;2022-08-19T08:09:46;23.80;99.90
31131;DHT22;20292;50.944;4.034;2022-08-19T08:12:21;23.90;99.90
31131;DHT22;20292;50.944;4.034;2022-08-19T08:14:53;24.00;99.90
31131;DHT22;20292;50.944;4.034;2022-08-19T08:17:23;23.90;99.90
31131;DHT22;20292;50.944;4.034;2022-08-19T08:19:49;23.80;99.90
31131;DHT22;20292;50.944;4.034;2022-08-19T08:22:17;23.80;99.90
31131;DHT22;20292;50.944;4.034;2022-08-19T08:25:08;23.80;99.90
31131;DHT22;20292;50.944;4.034;2022-08-19T08:27:39;23.80;99.90
31131;DHT22;20292;50.944;4.034;2022-08-19T08:30:11;23.80;99.90
31131;DHT22;20292;50.944;4.034;2022-08-19T08:32:37;23.80;99.90
31131;DHT22;20292;50.944;4.034;2022-08-19T08:35:16;23.80;99.90
31131;DHT22;20292;50.944;4.034;2022-08-19T08:37:43;23.90;99.90
31131;DHT22;20292;50.944;4.034;2022-08-19T08:40:38;23.90;99.90
31131;DHT22;20292;50.944;4.034;2022-08-19T08:43:13;23.90;99.90
31131;DHT22;20292;50.944;4.034;2022-08-19T08:46:04;24.00;99.90
31131;DHT22;20292;50.944;4.034;2022-08-19T08:48:46;24.10;99.90
31131;DHT22;20292;50.944;4.034;2022-08-19T08:51:18;24.10;99.90
31131;DHT22;20292;50.944;4.034;2022-08-19T08:53:47;24.20;99.90
31131;DHT22;20292;50.944;4.034;2022-08-19T08:56:14;24.20;99.90
31131;DHT22;20292;50.944;4.034;2022-08-19T08:58:49;24.20;99.90
31131;DHT22;20292;50.944;4.034;2022-08-19T09:01:16;24.30;99.90
31131;DHT22;20292;50.944;4.034;2022-08-19T09:03:42;24.30;99.90
31131;DHT22;20292;50.944;4.034;2022-08-19T09:06:14;24.30;99.90
31131;DHT22;20292;50.944;4.034;2022-08-19T09:09:03;24.30;99.90
31131;DHT22;20292;50.944;4.034;2022-08-19T09:14:07;24.30;99.90
31131;DHT22;20292;50.944;4.034;2022-08-19T09:16:34;24.40;99.90
31131;DHT22;20292;50.944;4.034;2022-08-19T09:19:04;24.30;99.90
31131;DHT22;20292;50.944;4.034;2022-08-19T09:21:30;24.40;99.90
31131;DHT22;20292;50.944;4.034;2022-08-19T09:23:56;24.30;99.90
31131;DHT22;20292;50.944;4.034;2022-08-19T09:26:23;24.40;99.90
31131;DHT22;20292;50.944;4.034;2022-08-19T09:28:50;24.50;99.90
31131;DHT22;20292;50.944;4.034;2022-08-19T09:31:22;24.50;99.90
31131;DHT22;20292;50.944;4.034;2022-08-19T09:33:48;24.50;99.90
31131;DHT22;20292;50.944;4.034;2022-08-19T09:36:17;24.50;99.90
31131;DHT22;20292;50.944;4.034;2022-08-19T09:38:44;24.70;99.90
31131;DHT22;20292;50.944;4.034;2022-08-19T09:41:16;24.70;99.90
31131;DHT22;20292;50.944;4.034;2022-08-19T09:43:45;24.80;99.90
31131;DHT22;20292;50.944;4.034;2022-08-19T09:46:12;24.80;99.90
31131;DHT22;20292;50.944;4.034;2022-08-19T09:48:41;24.70;99.90
31131;DHT22;20292;50.944;4.034;2022-08-19T09:51:09;24.50;99.90
31131;DHT22;20292;50.944;4.034;2022-08-19T09:53:37;24.40;99.90
31131;DHT22;20292;50.944;4.034;2022-08-19T09:56:03;24.40;99.90
31131;DHT22;20292;50.944;4.034;2022-08-19T09:58:29;24.40;99.90
31131;DHT22;20292;50.944;4.034;2022-08-19T10:00:57;24.50;99.90
31131;DHT22;20292;50.944;4.034;2022-08-19T10:03:24;24.60;99.90
31131;DHT22;20292;50.944;4.034;2022-08-19T10:05:50;24.80;99.90
31131;DHT22;20292;50.944;4.034;2022-08-19T10:08:21;25.00;99.90
31131;DHT22;20292;50.944;4.034;2022-08-19T10:10:48;25.20;99.90
31131;DHT22;20292;50.944;4.034;2022-08-19T10:13:17;25.50;99.90
31131;DHT22;20292;50.944;4.034;2022-08-19T10:15:43;25.70;99.90
31131;DHT22;20292;50.944;4.034;2022-08-19T10:18:09;25.80;99.90
31131;DHT22;20292;50.944;4.034;2022-08-19T10:20:35;25.80;99.90
31131;DHT22;20292;50.944;4.034;2022-08-19T10:23:03;25.60;99.90
31131;DHT22;20292;50.944;4.034;2022-08-19T10:25:29;25.60;99.90
31131;DHT22;20292;50.944;4.034;2022-08-19T10:27:54;25.50;99.90
31131;DHT22;20292;50.944;4.034;2022-08-19T10:30:21;25.50;99.90
31131;DHT22;20292;50.944;4.034;2022-08-19T10:32:46;25.50;99.90
31131;DHT22;20292;50.944;4.034;2022-08-19T10:35:13;25.60;99.90
31131;DHT22;20292;50.944;4.034;2022-08-19T10:37:40;25.80;99.90
31131;DHT22;20292;50.944;4.034;2022-08-19T10:40:07;25.90;99.90
31131;DHT22;20292;50.944;4.034;2022-08-19T10:42:34;26.00;99.90
31131;DHT22;20292;50.944;4.034;2022-08-19T10:45:01;26.10;99.90
31131;DHT22;20292;50.944;4.034;2022-08-19T10:47:27;26.10;99.90
31131;DHT22;20292;50.944;4.034;2022-08-19T10:49:53;26.00;99.90
31131;DHT22;20292;50.944;4.034;2022-08-19T10:52:40;26.10;99.90
31131;DHT22;20292;50.944;4.034;2022-08-19T10:55:06;26.10;99.90
31131;DHT22;20292;50.944;4.034;2022-08-19T10:57:51;26.00;99.90
31131;DHT22;20292;50.944;4.034;2022-08-19T11:00:19;26.10;99.90
31131;DHT22;20292;50.944;4.034;2022-08-19T11:02:44;26.20;99.90
31131;DHT22;20292;50.944;4.034;2022-08-19T11:05:11;26.50;99.90
31131;DHT22;20292;50.944;4.034;2022-08-19T11:07:41;26.90;99.90
31131;DHT22;20292;50.944;4.034;2022-08-19T11:10:08;27.30;99.90
31131;DHT22;20292;50.944;4.034;2022-08-19T11:12:37;27.50;99.90
31131;DHT22;20292;50.944;4.034;2022-08-19T11:15:08;27.70;99.90
31131;DHT22;20292;50.944;4.034;2022-08-19T11:17:39;28.00;99.90
31131;DHT22;20292;50.944;4.034;2022-08-19T11:20:10;28.20;99.90
31131;DHT22;20292;50.944;4.034;2022-08-19T11:22:37;28.50;99.90
31131;DHT22;20292;50.944;4.034;2022-08-19T11:25:03;28.40;99.90
31131;DHT22;20292;50.944;4.034;2022-08-19T11:27:29;28.40;99.90
31131;DHT22;20292;50.944;4.034;2022-08-19T11:29:55;28.40;99.90
31131;DHT22;20292;50.944;4.034;2022-08-19T11:32:21;28.30;99.90
31131;DHT22;20292;50.944;4.034;2022-08-19T11:34:47;28.10;99.90
31131;DHT22;20292;50.944;4.034;2022-08-19T11:37:12;27.90;99.90
31131;DHT22;20292;50.944;4.034;2022-08-19T11:39:38;27.90;99.90
31131;DHT22;20292;50.944;4.034;2022-08-19T11:42:05;27.50;99.90
31131;DHT22;20292;50.944;4.034;2022-08-19T11:44:50;27.30;99.90
31131;DHT22;20292;50.944;4.034;2022-08-19T11:47:16;27.30;99.90
31131;DHT22;20292;50.944;4.034;2022-08-19T11:49:42;27.10;99.90
31131;DHT22;20292;50.944;4.034;2022-08-19T11:52:08;27.20;99.90
31131;DHT22;20292;50.944;4.034;2022-08-19T11:54:33;27.50;99.90
31131;DHT22;20292;50.944;4.034;2022-08-19T11:56:59;27.70;99.90
31131;DHT22;20292;50.944;4.034;2022-08-19T11:59:26;27.80;99.90
31131;DHT22;20292;50.944;4.034;2022-08-19T12:01:52;27.90;99.90
31131;DHT22;20292;50.944;4.034;2022-08-19T12:04:18;27.90;99.90
31131;DHT22;20292;50.944;4.034;2022-08-19T12:06:43;28.00;99.90
31131;DHT22;20292;50.944;4.034;2022-08-19T12:09:10;28.10;99.90
31131;DHT22;20292;50.944;4.034;2022-08-19T12:11:37;28.20;99.90
31131;DHT22;20292;50.944;4.034;2022-08-19T12:14:03;28.10;99.90
31131;DHT22;20292;50.944;4.034;2022-08-19T12:16:30;28.10;99.90
31131;DHT22;20292;50.944;4.034;2022-08-19T12:18:57;28.30;99.90
31131;DHT22;20292;50.944;4.034;2022-08-19T12:21:25;28.20;99.90
31131;DHT22;20292;50.944;4.034;2022-08-19T12:23:54;28.10;99.90
31131;DHT22;20292;50.944;4.034;2022-08-19T12:26:21;28.50;99.90
31131;DHT22;20292;50.944;4.034;2022-08-19T12:28:46;28.60;99.90
31131;DHT22;20292;50.944;4.034;2022-08-19T12:31:14;28.80;99.90
31131;DHT22;20292;50.944;4.034;2022-08-19T12:33:40;28.80;99.90
31131;DHT22;20292;50.944;4.034;2022-08-19T12:36:12;28.80;99.90
31131;DHT22;20292;50.944;4.034;2022-08-19T12:38:38;28.80;99.90
31131;DHT22;20292;50.944;4.034;2022-08-19T12:41:05;28.80;99.90
31131;DHT22;20292;50.944;4.034;2022-08-19T12:43:32;28.70;99.90
31131;DHT22;20292;50.944;4.034;2022-08-19T12:45:58;28.60;99.90
31131;DHT22;20292;50.944;4.034;2022-08-19T12:48:23;28.60;99.90
31131;DHT22;20292;50.944;4.034;2022-08-19T12:50:49;28.50;99.90
31131;DHT22;20292;50.944;4.034;2022-08-19T12:53:15;28.50;99.90
31131;DHT22;20292;50.944;4.034;2022-08-19T12:55:41;28.50;99.90
31131;DHT22;20292;50.944;4.034;2022-08-19T12:58:08;28.30;99.90
31131;DHT22;20292;50.944;4.034;2022-08-19T13:00:34;28.20;99.90
31131;DHT22;20292;50.944;4.034;2022-08-19T13:03:00;28.10;99.90
31131;DHT22;20292;50.944;4.034;2022-08-19T13:05:29;28.00;99.90
31131;DHT22;20292;50.944;4.034;2022-08-19T13:07:56;28.00;99.90
31131;DHT22;20292;50.944;4.034;2022-08-19T13:10:25;27.80;99.90
31131;DHT22;20292;50.944;4.034;2022-08-19T13:12:53;27.90;99.90
31131;DHT22;20292;50.944;4.034;2022-08-19T13:15:20;28.30;99.90
31131;DHT22;20292;50.944;4.034;2022-08-19T13:17:48;28.40;99.90
31131;DHT22;20292;50.944;4.034;2022-08-19T13:20:17;28.40;99.90
31131;DHT22;20292;50.944;4.034;2022-08-19T13:22:42;28.30;99.90
31131;DHT22;20292;50.944;4.034;2022-08-19T13:25:11;28.30;99.90
31131;DHT22;20292;50.944;4.034;2022-08-19T13:27:38;28.30;99.90
31131;DHT22;20292;50.944;4.034;2022-08-19T13:30:06;28.20;99.90
31131;DHT22;20292;50.944;4.034;2022-08-19T13:32:50;28.20;99.90
31131;DHT22;20292;50.944;4.034;2022-08-19T13:35:34;28.20;99.90
31131;DHT22;20292;50.944;4.034;2022-08-19T13:38:00;28.40;99.90
31131;DHT22;20292;50.944;4.034;2022-08-19T13:40:31;28.50;99.90
31131;DHT22;20292;50.944;4.034;2022-08-19T13:42:59;28.60;99.90
31131;DHT22;20292;50.944;4.034;2022-08-19T13:45:27;28.50;99.90
31131;DHT22;20292;50.944;4.034;2022-08-19T13:47:54;28.50;99.90
31131;DHT22;20292;50.944;4.034;2022-08-19T13:50:24;28.20;99.90
31131;DHT22;20292;50.944;4.034;2022-08-19T13:52:54;27.90;99.90
31131;DHT22;20292;50.944;4.034;2022-08-19T13:55:20;27.70;99.90
31131;DHT22;20292;50.944;4.034;2022-08-19T13:57:46;27.70;99.90
31131;DHT22;20292;50.944;4.034;2022-08-19T14:00:16;27.70;99.90
31131;DHT22;20292;50.944;4.034;2022-08-19T14:02:46;27.50;99.90
31131;DHT22;20292;50.944;4.034;2022-08-19T14:05:15;27.40;99.90
31131;DHT22;20292;50.944;4.034;2022-08-19T14:07:41;27.30;99.90
31131;DHT22;20292;50.944;4.034;2022-08-19T14:10:09;27.30;99.90
31131;DHT22;20292;50.944;4.034;2022-08-19T14:12:35;27.20;99.90
31131;DHT22;20292;50.944;4.034;2022-08-19T14:15:03;27.20;99.90
31131;DHT22;20292;50.944;4.034;2022-08-19T14:17:29;27.50;99.90
31131;DHT22;20292;50.944;4.034;2022-08-19T14:19:59;27.70;99.90
31131;DHT22;20292;50.944;4.034;2022-08-19T14:22:33;28.00;99.90
31131;DHT22;20292;50.944;4.034;2022-08-19T14:24:58;28.10;99.90
31131;DHT22;20292;50.944;4.034;2022-08-19T14:27:24;27.90;99.90
31131;DHT22;20292;50.944;4.034;2022-08-19T14:29:51;28.00;99.90
31131;DHT22;20292;50.944;4.034;2022-08-19T14:32:17;28.10;99.90
31131;DHT22;20292;50.944;4.034;2022-08-19T14:34:43;28.30;99.90
31131;DHT22;20292;50.944;4.034;2022-08-19T14:37:11;28.30;99.90
31131;DHT22;20292;50.944;4.034;2022-08-19T14:39:39;28.40;99.90
31131;DHT22;20292;50.944;4.034;2022-08-19T14:42:07;28.40;99.90
31131;DHT22;20292;50.944;4.034;2022-08-19T14:44:34;28.30;99.90
31131;DHT22;20292;50.944;4.034;2022-08-19T14:46:59;28.10;99.90
31131;DHT22;20292;50.944;4.034;2022-08-19T14:49:25;27.60;99.90
31131;DHT22;20292;50.944;4.034;2022-08-19T14:51:51;27.30;99.90
31131;DHT22;20292;50.944;4.034;2022-08-19T14:54:16;27.10;99.90
31131;DHT22;20292;50.944;4.034;2022-08-19T14:56:42;27.00;99.90
31131;DHT22;20292;50.944;4.034;2022-08-19T14:59:08;27.20;99.90
31131;DHT22;20292;50.944;4.034;2022-08-19T15:01:34;27.30;99.90
31131;DHT22;20292;50.944;4.034;2022-08-19T15:04:00;27.50;99.90
31131;DHT22;20292;50.944;4.034;2022-08-19T15:06:26;27.60;99.90
31131;DHT22;20292;50.944;4.034;2022-08-19T15:08:52;27.60;99.90
31131;DHT22;20292;50.944;4.034;2022-08-19T15:11:21;27.70;99.90
31131;DHT22;20292;50.944;4.034;2022-08-19T15:13:48;27.60;99.90
31131;DHT22;20292;50.944;4.034;2022-08-19T15:16:14;27.60;99.90
31131;DHT22;20292;50.944;4.034;2022-08-19T15:18:40;27.70;99.90
31131;DHT22;20292;50.944;4.034;2022-08-19T15:21:09;27.70;99.90
31131;DHT22;20292;50.944;4.034;2022-08-19T15:23:37;27.30;99.90
31131;DHT22;20292;50.944;4.034;2022-08-19T15:26:03;27.40;99.90
31131;DHT22;20292;50.944;4.034;2022-08-19T15:28:31;27.30;99.90
31131;DHT22;20292;50.944;4.034;2022-08-19T15:30:57;27.40;99.90
31131;DHT22;20292;50.944;4.034;2022-08-19T15:33:23;27.50;99.90
31131;DHT22;20292;50.944;4.034;2022-08-19T15:35:49;27.60;99.90
31131;DHT22;20292;50.944;4.034;2022-08-19T15:38:16;27.60;99.90
31131;DHT22;20292;50.944;4.034;2022-08-19T15:40:44;27.50;99.90
31131;DHT22;20292;50.944;4.034;2022-08-19T15:43:10;27.30;99.90